Aviation Digital Data Service (ADDS)

Output produced by TAFs form (1655 UTC 25 July 2017)
found at http://aviationweather.gov/adds/tafs/
 
KPUB 251120Z 2512/2612 VRB05KT P6SM SCT150 BKN200 
     FM251800 19011KT P6SM SCT120 BKN200 
     FM252200 21011KT P6SM VCTS SCT100CB BKN150 
     FM260400 01012KT P6SM SCT100 BKN150